Time;durP1;ratioP1;P1;durP2;ratioP2;P2;SDS_P1;SDS_P2;PMS_P1;PMS_P2;Temp;Humidity;BMP_temperature;BMP_pressure;BME280_temperature;BME280_humidity;BME280_pressure;Samples;Min_cycle;Max_cycle;Signal;HPM_P1;HPM_P2
2022/06/07 00:02:00;;;;;;;6.45;4.63;;;14.30;85.00;;;;;;4976925;28;20040;-80
2022/06/07 00:04:26;;;;;;;9.45;6.72;;;14.20;85.20;;;;;;4976636;28;20030;-80
2022/06/07 00:06:51;;;;;;;7.18;4.85;;;14.10;84.90;;;;;;4963610;28;20084;-79
2022/06/07 00:09:17;;;;;;;5.22;4.72;;;14.00;85.80;;;;;;4973821;28;20042;-80
2022/06/07 00:11:42;;;;;;;4.32;3.80;;;14.00;85.70;;;;;;4968106;28;20115;-80
2022/06/07 00:14:08;;;;;;;6.47;5.20;;;13.90;84.80;;;;;;4962684;28;20030;-80
2022/06/07 00:16:33;;;;;;;5.25;4.13;;;13.90;88.30;;;;;;4978712;28;20034;-79
2022/06/07 00:18:59;;;;;;;6.85;4.47;;;13.90;86.20;;;;;;4957388;28;20105;-79
2022/06/07 00:21:29;;;;;;;7.68;6.47;;;13.90;87.00;;;;;;4966439;28;20085;-79
2022/06/07 00:23:54;;;;;;;8.52;5.90;;;13.80;88.10;;;;;;4972740;28;20046;-79
2022/06/07 00:26:20;;;;;;;7.05;4.88;;;13.70;86.60;;;;;;4989209;28;20042;-80
2022/06/07 00:28:46;;;;;;;4.63;4.18;;;13.60;86.90;;;;;;4976566;28;20049;-79
2022/06/07 00:31:11;;;;;;;7.25;5.95;;;13.70;88.10;;;;;;4950533;28;20045;-80
2022/06/07 00:33:37;;;;;;;5.80;4.00;;;13.70;90.00;;;;;;4956240;28;20076;-79
2022/06/07 00:36:03;;;;;;;5.55;4.75;;;13.60;89.20;;;;;;4959130;28;20027;-79
2022/06/07 00:38:28;;;;;;;6.43;5.38;;;13.60;89.80;;;;;;4978626;28;20030;-79
2022/06/07 00:40:54;;;;;;;6.70;5.80;;;13.50;89.60;;;;;;4993754;28;20030;-79
2022/06/07 00:43:23;;;;;;;7.15;4.93;;;13.60;90.20;;;;;;4989295;28;20446;-79
2022/06/07 00:45:49;;;;;;;10.50;7.28;;;13.40;89.70;;;;;;4976172;28;20172;-79
2022/06/07 00:48:15;;;;;;;9.35;6.15;;;13.30;90.70;;;;;;4977607;28;20052;-79
2022/06/07 00:50:43;;;;;;;9.10;7.63;;;13.30;91.70;;;;;;4979824;28;20030;-79
2022/06/07 00:53:20;;;;;;;7.20;5.93;;;13.30;90.80;;;;;;4986771;28;20402;-79
2022/06/07 00:55:45;;;;;;;11.95;7.10;;;13.30;91.10;;;;;;4958459;28;20030;-79
2022/06/07 00:58:11;;;;;;;7.88;6.07;;;13.20;92.90;;;;;;4988832;28;20343;-79
2022/06/07 01:00:36;;;;;;;7.63;5.80;;;13.10;92.00;;;;;;4957105;28;20042;-79
2022/06/07 01:03:02;;;;;;;7.50;5.55;;;13.00;94.60;;;;;;4973702;28;20046;-79
2022/06/07 01:05:28;;;;;;;9.05;5.07;;;13.00;94.70;;;;;;4979523;28;20109;-79
2022/06/07 01:10:43;;;;;;;9.60;7.15;;;13.00;95.60;;;;;;4986965;28;20164;-80
2022/06/07 01:13:10;;;;;;;9.23;6.65;;;13.00;96.00;;;;;;4993375;28;20030;-80
2022/06/07 01:15:35;;;;;;;8.07;5.72;;;13.00;95.70;;;;;;4975810;28;20080;-80
2022/06/07 01:18:01;;;;;;;7.45;5.82;;;13.00;96.40;;;;;;4993200;28;20041;-79
2022/06/07 01:20:28;;;;;;;7.95;7.15;;;12.90;96.00;;;;;;4969086;28;20089;-79
2022/06/07 01:22:54;;;;;;;6.15;5.47;;;12.90;98.10;;;;;;4976503;28;20046;-79
2022/06/07 01:25:19;;;;;;;9.65;6.15;;;12.90;97.70;;;;;;4961352;28;20368;-79
2022/06/07 01:27:45;;;;;;;7.20;6.47;;;12.90;97.80;;;;;;4979862;28;20038;-79
2022/06/07 01:30:11;;;;;;;8.02;4.65;;;12.80;99.20;;;;;;4961861;28;20094;-79
2022/06/07 01:32:37;;;;;;;7.50;4.63;;;12.80;99.20;;;;;;4960066;28;20042;-79
2022/06/07 01:35:03;;;;;;;9.10;5.30;;;12.90;99.70;;;;;;4977612;28;20026;-79
2022/06/07 01:37:28;;;;;;;4.97;3.78;;;13.00;99.00;;;;;;4964041;28;20038;-79
2022/06/07 01:42:38;;;;;;;5.32;4.55;;;13.40;99.10;;;;;;4992196;28;20061;-77
2022/06/07 01:45:05;;;;;;;5.57;4.00;;;13.30;99.20;;;;;;4977625;28;20030;-77
2022/06/07 01:47:31;;;;;;;6.97;3.80;;;13.20;99.50;;;;;;4955390;28;20039;-77
2022/06/07 01:49:57;;;;;;;6.22;3.72;;;13.20;99.90;;;;;;4991308;28;20517;-77
2022/06/07 01:52:24;;;;;;;7.45;4.43;;;13.40;99.40;;;;;;4956379;28;20118;-77
2022/06/07 01:54:51;;;;;;;6.32;3.10;;;13.40;99.60;;;;;;4997264;28;20053;-77
2022/06/07 01:57:18;;;;;;;5.10;3.53;;;13.40;99.90;;;;;;4980647;28;20506;-77
2022/06/07 01:59:43;;;;;;;6.57;4.13;;;13.30;99.90;;;;;;4960765;28;20045;-77
2022/06/07 02:02:09;;;;;;;10.20;3.72;;;13.30;99.90;;;;;;4961657;28;20034;-77
2022/06/07 02:04:36;;;;;;;6.28;4.25;;;13.30;99.90;;;;;;4955986;28;20030;-77
2022/06/07 02:07:02;;;;;;;4.65;3.63;;;13.40;99.90;;;;;;4974964;28;20039;-77
2022/06/07 02:09:27;;;;;;;5.00;3.33;;;13.40;99.90;;;;;;4991921;28;20037;-77
2022/06/07 02:11:53;;;;;;;8.60;4.07;;;13.40;99.90;;;;;;4975067;28;20031;-77
2022/06/07 02:14:18;;;;;;;8.38;3.53;;;13.30;99.90;;;;;;4975479;28;20086;-77
2022/06/07 02:16:44;;;;;;;4.22;3.40;;;13.40;99.90;;;;;;4970637;28;20037;-77
2022/06/07 02:19:09;;;;;;;6.00;3.78;;;13.50;99.90;;;;;;4979389;28;20505;-77
2022/06/07 02:21:36;;;;;;;4.25;3.42;;;13.40;99.90;;;;;;4954669;28;20729;-79
2022/06/07 02:24:04;;;;;;;4.32;2.80;;;13.30;99.90;;;;;;4964400;28;20041;-79
2022/06/07 02:26:53;;;;;;;10.20;3.17;;;13.40;99.90;;;;;;4967961;28;20592;-79
2022/06/07 02:29:25;;;;;;;5.82;3.45;;;13.30;99.90;;;;;;4966498;28;20041;-79
2022/06/07 02:31:56;;;;;;;7.78;3.47;;;13.40;99.90;;;;;;4993981;28;20057;-79
2022/06/07 02:34:21;;;;;;;5.75;3.05;;;13.30;99.90;;;;;;4958767;28;20063;-79
2022/06/07 02:36:48;;;;;;;3.15;2.85;;;13.30;99.90;;;;;;4993197;28;20124;-79
2022/06/07 02:39:14;;;;;;;5.40;2.75;;;13.40;99.90;;;;;;4971182;28;20039;-79
2022/06/07 02:41:40;;;;;;;3.33;2.38;;;13.40;99.90;;;;;;4990332;28;20149;-79
2022/06/07 02:44:05;;;;;;;4.97;3.05;;;13.50;99.90;;;;;;4969110;28;20057;-77
2022/06/07 02:46:31;;;;;;;4.57;3.40;;;13.40;99.90;;;;;;4990902;28;20053;-77
2022/06/07 02:48:56;;;;;;;5.68;3.40;;;13.40;99.90;;;;;;4959121;28;20034;-77
2022/06/07 02:51:22;;;;;;;5.85;3.35;;;13.40;99.90;;;;;;4959744;28;20120;-77
2022/06/07 02:53:48;;;;;;;5.60;3.20;;;13.40;99.90;;;;;;4976894;28;20050;-77
2022/06/07 02:56:13;;;;;;;9.82;3.05;;;13.40;99.90;;;;;;4978042;28;20114;-77
2022/06/07 02:58:39;;;;;;;5.10;2.97;;;13.40;99.90;;;;;;4975845;28;20034;-77
2022/06/07 03:01:04;;;;;;;4.47;1.85;;;13.40;99.90;;;;;;4976486;28;20045;-77
2022/06/07 03:03:30;;;;;;;3.47;2.33;;;13.40;99.90;;;;;;4977640;28;20034;-77
2022/06/07 03:05:56;;;;;;;6.82;3.00;;;13.40;99.90;;;;;;4972987;28;20164;-77
2022/06/07 03:08:22;;;;;;;6.35;2.92;;;13.30;99.90;;;;;;4958703;28;20474;-77
2022/06/07 03:10:49;;;;;;;9.50;2.72;;;13.30;99.90;;;;;;4994404;28;20034;-77
2022/06/07 03:13:15;;;;;;;3.75;2.40;;;13.10;99.90;;;;;;4974011;28;20076;-77
2022/06/07 03:15:41;;;;;;;4.57;2.17;;;13.20;99.90;;;;;;4977828;28;20494;-77
2022/06/07 03:18:07;;;;;;;2.47;2.22;;;13.20;99.90;;;;;;4992612;28;20442;-77
2022/06/07 03:20:33;;;;;;;4.30;2.88;;;13.30;99.90;;;;;;4975510;28;20375;-78
2022/06/07 03:22:58;;;;;;;5.75;2.95;;;13.30;99.90;;;;;;4975069;28;20057;-79
2022/06/07 03:25:24;;;;;;;3.30;2.40;;;13.20;99.90;;;;;;4953437;28;20037;-78
2022/06/07 03:27:50;;;;;;;4.78;1.30;;;13.20;99.90;;;;;;4957697;28;20038;-79
2022/06/07 03:30:15;;;;;;;8.25;2.50;;;13.30;99.90;;;;;;4957416;28;20057;-80
2022/06/07 03:32:42;;;;;;;5.82;3.25;;;13.30;99.90;;;;;;4985938;28;20049;-80
2022/06/07 03:35:08;;;;;;;3.63;2.30;;;13.30;99.90;;;;;;4994212;28;20042;-80
2022/06/07 03:37:40;;;;;;;5.25;2.33;;;13.20;99.90;;;;;;4958515;28;20035;-80
2022/06/07 03:40:07;;;;;;;4.72;2.60;;;13.20;99.90;;;;;;4978666;28;20089;-80
2022/06/07 03:42:32;;;;;;;7.72;2.38;;;13.20;99.90;;;;;;4974996;28;20065;-80
2022/06/07 03:44:58;;;;;;;3.83;2.00;;;13.20;99.90;;;;;;4955661;28;20062;-80
2022/06/07 03:47:24;;;;;;;6.15;2.25;;;13.10;99.90;;;;;;4975958;28;20126;-79
2022/06/07 03:49:49;;;;;;;6.63;1.95;;;13.10;99.90;;;;;;4992856;28;20482;-78
2022/06/07 03:52:15;;;;;;;4.53;2.00;;;13.20;99.90;;;;;;4961892;28;20036;-79
2022/06/07 03:54:41;;;;;;;2.05;1.27;;;13.20;99.90;;;;;;4947945;28;20666;-79
2022/06/07 03:57:07;;;;;;;4.15;2.20;;;13.20;99.90;;;;;;4957036;28;20053;-78
2022/06/07 03:59:32;;;;;;;6.28;2.17;;;13.20;99.90;;;;;;4990512;28;20035;-79
2022/06/07 04:01:58;;;;;;;7.78;2.67;;;13.20;99.90;;;;;;4974390;28;20034;-79
2022/06/07 04:04:24;;;;;;;3.38;2.67;;;13.30;99.90;;;;;;4958322;28;20450;-79
2022/06/07 04:09:40;;;;;;;3.53;2.40;;;13.30;99.90;;;;;;4978046;28;20040;-79
2022/06/07 04:12:15;;;;;;;6.00;2.22;;;13.40;99.90;;;;;;4981588;28;20085;-78
2022/06/07 04:14:42;;;;;;;3.97;2.28;;;13.50;99.90;;;;;;4959318;28;20417;-79
2022/06/07 04:17:07;;;;;;;3.13;2.10;;;13.50;99.90;;;;;;4953660;28;20034;-79
2022/06/07 04:19:34;;;;;;;3.50;2.13;;;13.60;99.90;;;;;;4989500;28;20065;-79
2022/06/07 04:22:00;;;;;;;2.65;2.13;;;13.60;99.90;;;;;;4947659;28;20477;-78
2022/06/07 04:24:25;;;;;;;3.20;2.20;;;13.70;99.90;;;;;;4989621;28;20034;-78
2022/06/07 04:26:51;;;;;;;1.75;1.42;;;13.80;99.90;;;;;;4991632;28;20050;-78
2022/06/07 04:29:17;;;;;;;6.95;2.15;;;13.80;99.90;;;;;;4958417;28;20042;-78
2022/06/07 04:31:42;;;;;;;4.82;2.10;;;13.90;99.90;;;;;;4952029;28;20479;-79
2022/06/07 04:34:08;;;;;;;4.35;2.03;;;13.90;99.90;;;;;;4976207;28;20168;-79
2022/06/07 04:36:33;;;;;;;3.53;1.75;;;13.90;99.90;;;;;;4970695;28;20030;-79
2022/06/07 04:39:00;;;;;;;3.15;1.98;;;14.00;99.90;;;;;;4955175;28;20476;-79
2022/06/07 04:41:26;;;;;;;5.78;2.28;;;14.00;99.90;;;;;;4955444;28;20034;-78
2022/06/07 04:43:52;;;;;;;3.20;1.70;;;14.00;99.90;;;;;;4992902;28;20414;-79
2022/06/07 04:46:17;;;;;;;3.03;1.55;;;14.00;99.90;;;;;;4996953;28;20585;-80
2022/06/07 04:48:44;;;;;;;2.55;1.52;;;14.10;99.90;;;;;;4970025;28;20034;-81
2022/06/07 04:51:12;;;;;;;6.95;3.33;;;14.20;99.90;;;;;;4984188;28;20038;-79
2022/06/07 04:53:38;;;;;;;5.53;1.90;;;14.40;99.90;;;;;;4982745;28;20049;-78
2022/06/07 04:56:08;;;;;;;7.13;1.40;;;14.40;99.90;;;;;;4977378;28;20040;-78
2022/06/07 04:58:34;;;;;;;4.80;1.48;;;14.50;99.90;;;;;;4979215;28;20038;-78
2022/06/07 05:00:59;;;;;;;2.70;1.45;;;14.50;99.90;;;;;;4977427;28;20483;-78
2022/06/07 05:03:25;;;;;;;3.40;1.55;;;14.60;99.90;;;;;;4955579;28;20124;-78
2022/06/07 05:05:50;;;;;;;2.30;1.35;;;14.60;99.90;;;;;;4975436;28;20062;-78
2022/06/07 05:08:17;;;;;;;4.60;1.60;;;14.70;99.90;;;;;;4978027;28;20123;-79
2022/06/07 05:10:42;;;;;;;8.75;2.20;;;14.80;99.90;;;;;;4970754;28;20038;-78
2022/06/07 05:13:08;;;;;;;7.43;1.90;;;14.80;99.90;;;;;;4976893;28;20645;-78
2022/06/07 05:15:33;;;;;;;3.50;1.90;;;14.90;99.90;;;;;;4983694;28;20498;-78
2022/06/07 05:17:59;;;;;;;3.90;1.80;;;14.90;99.90;;;;;;4996089;28;20038;-79
2022/06/07 05:20:25;;;;;;;3.88;1.58;;;14.80;99.90;;;;;;4977238;28;20058;-79
2022/06/07 05:22:51;;;;;;;3.00;1.90;;;14.90;99.90;;;;;;4971169;28;20096;-78
2022/06/07 05:25:17;;;;;;;2.85;1.60;;;14.90;99.90;;;;;;4983216;28;20520;-79
2022/06/07 05:27:46;;;;;;;4.25;1.52;;;15.00;99.90;;;;;;4969263;28;20883;-79
2022/06/07 05:30:12;;;;;;;3.85;1.42;;;15.10;99.90;;;;;;4978986;28;20548;-79
2022/06/07 05:32:38;;;;;;;5.75;1.50;;;15.00;99.90;;;;;;4970468;28;20065;-79
2022/06/07 05:35:05;;;;;;;7.45;1.75;;;15.10;99.90;;;;;;4979776;28;20061;-79
2022/06/07 05:37:31;;;;;;;2.78;1.80;;;15.10;99.90;;;;;;4961130;28;20037;-79
2022/06/07 05:39:57;;;;;;;4.65;1.58;;;15.20;99.90;;;;;;4974805;28;20038;-79
2022/06/07 05:42:25;;;;;;;3.22;1.20;;;15.20;99.90;;;;;;4982902;28;20397;-80
2022/06/07 05:44:51;;;;;;;9.27;2.80;;;15.20;99.90;;;;;;4957491;28;20057;-79
2022/06/07 05:47:16;;;;;;;5.78;1.63;;;15.20;99.90;;;;;;4997996;28;20058;-80
2022/06/07 05:49:42;;;;;;;3.78;1.73;;;15.20;99.90;;;;;;4976555;28;20030;-79
2022/06/07 05:52:08;;;;;;;2.97;2.15;;;15.20;99.90;;;;;;4951531;28;20022;-79
2022/06/07 05:54:34;;;;;;;4.75;1.55;;;15.30;99.90;;;;;;4981936;28;20490;-78
2022/06/07 05:57:00;;;;;;;3.88;1.65;;;15.30;99.90;;;;;;4974471;28;20109;-77
2022/06/07 05:59:26;;;;;;;2.85;1.38;;;15.30;99.90;;;;;;4972485;28;20125;-77
2022/06/07 06:01:52;;;;;;;2.40;1.20;;;15.40;99.90;;;;;;4992948;28;20042;-78
2022/06/07 06:04:18;;;;;;;3.65;1.67;;;15.40;99.90;;;;;;4977463;28;20034;-77
2022/06/07 06:06:44;;;;;;;3.85;1.48;;;15.50;99.90;;;;;;4980441;28;20060;-78
2022/06/07 06:11:54;;;;;;;3.38;1.88;;;15.80;99.90;;;;;;4982695;28;20501;-77
2022/06/07 06:14:20;;;;;;;6.15;1.63;;;15.90;99.90;;;;;;4975374;28;20513;-78
2022/06/07 06:16:46;;;;;;;6.72;1.58;;;16.00;99.70;;;;;;4963211;28;20033;-78
2022/06/07 06:19:11;;;;;;;2.40;1.73;;;16.20;99.90;;;;;;4976164;28;20078;-78
2022/06/07 06:21:39;;;;;;;1.05;0.70;;;16.20;99.30;;;;;;4976513;28;20034;-78
2022/06/07 06:24:06;;;;;;;4.78;1.40;;;16.10;99.00;;;;;;4975849;28;20042;-78
2022/06/07 06:26:32;;;;;;;3.13;1.30;;;16.30;99.00;;;;;;4960742;28;20037;-78
2022/06/07 06:28:57;;;;;;;1.23;1.00;;;16.30;98.60;;;;;;4966672;28;20778;-78
2022/06/07 06:31:23;;;;;;;1.90;1.10;;;16.20;98.60;;;;;;4958006;28;20057;-77
2022/06/07 06:33:50;;;;;;;3.90;1.30;;;16.30;98.60;;;;;;4990875;28;20414;-78
2022/06/07 06:36:18;;;;;;;3.47;1.10;;;16.60;98.50;;;;;;4957656;28;20030;-78
2022/06/07 06:38:44;;;;;;;4.43;1.80;;;16.80;97.80;;;;;;4970872;28;20480;-78
2022/06/07 06:41:16;;;;;;;7.20;1.75;;;17.00;97.60;;;;;;4952933;28;20507;-78
2022/06/07 06:43:42;;;;;;;2.70;1.50;;;17.50;97.40;;;;;;4977156;28;20490;-78
2022/06/07 06:46:12;;;;;;;3.35;1.27;;;17.70;96.70;;;;;;4951899;28;20086;-78
2022/06/07 06:48:38;;;;;;;3.22;1.42;;;18.10;97.60;;;;;;4979097;28;20030;-78
2022/06/07 06:51:05;;;;;;;4.43;1.45;;;18.20;96.60;;;;;;4978756;28;20041;-78
2022/06/07 06:53:31;;;;;;;0.95;0.82;;;18.00;95.20;;;;;;4966180;28;20120;-79
2022/06/07 06:55:57;;;;;;;4.60;1.17;;;18.50;95.60;;;;;;4957299;28;20092;-79
2022/06/07 06:58:25;;;;;;;1.92;1.23;;;18.80;94.50;;;;;;4970680;28;20035;-79
2022/06/07 07:01:17;;;;;;;3.50;1.30;;;18.90;94.30;;;;;;4955699;28;20034;-78
2022/06/07 07:03:43;;;;;;;3.05;1.25;;;18.80;93.90;;;;;;4981782;28;20041;-79
2022/06/07 07:06:09;;;;;;;4.75;1.52;;;19.30;94.20;;;;;;4970724;28;20034;-79
2022/06/07 07:08:38;;;;;;;3.40;1.67;;;19.20;93.90;;;;;;4981014;28;20858;-79
2022/06/07 07:11:20;;;;;;;4.45;1.55;;;19.50;92.70;;;;;;4949123;28;20137;-79
2022/06/07 07:13:46;;;;;;;3.35;1.55;;;19.70;93.50;;;;;;4960626;28;20412;-79
2022/06/07 07:16:16;;;;;;;2.10;1.52;;;20.20;93.00;;;;;;4962541;28;20363;-79
2022/06/07 07:18:42;;;;;;;2.13;1.20;;;19.90;92.00;;;;;;4975572;28;20042;-79
2022/06/07 07:21:12;;;;;;;2.40;1.13;;;19.60;90.90;;;;;;4969575;28;20093;-79
2022/06/07 07:23:38;;;;;;;3.17;1.55;;;19.90;91.30;;;;;;4993767;28;20045;-79
2022/06/07 07:26:08;;;;;;;3.25;1.52;;;20.60;92.30;;;;;;4975651;28;20478;-79
2022/06/07 07:28:35;;;;;;;6.85;1.50;;;21.00;91.10;;;;;;4977595;28;20049;-79
2022/06/07 07:31:01;;;;;;;4.95;1.90;;;21.00;91.20;;;;;;4960951;28;20091;-79
2022/06/07 07:33:27;;;;;;;5.05;1.48;;;21.60;90.40;;;;;;4959564;28;20045;-79
2022/06/07 07:35:53;;;;;;;3.15;1.10;;;21.00;89.20;;;;;;4957254;28;20030;-80
2022/06/07 07:38:19;;;;;;;1.67;1.00;;;20.70;87.60;;;;;;4971621;28;20034;-80
2022/06/07 07:40:44;;;;;;;3.83;1.05;;;20.60;87.80;;;;;;4299977;28;10000399;-80
2022/06/07 07:43:12;;;;;;;7.70;2.63;;;20.80;87.70;;;;;;4954252;28;20046;-79
2022/06/07 07:45:37;;;;;;;2.25;1.30;;;21.30;87.60;;;;;;4971841;28;20437;-80
2022/06/07 07:48:03;;;;;;;3.05;1.10;;;21.50;88.80;;;;;;4974897;28;20037;-79
2022/06/07 07:50:29;;;;;;;7.60;1.98;;;22.40;90.10;;;;;;4994280;28;20054;-80
2022/06/07 07:52:58;;;;;;;4.90;1.63;;;22.30;85.20;;;;;;4974392;28;20367;-80
2022/06/07 07:55:24;;;;;;;5.13;1.35;;;22.60;88.50;;;;;;4975567;28;20185;-80
2022/06/07 07:57:51;;;;;;;5.55;1.58;;;22.90;88.20;;;;;;4972646;28;20038;-80
2022/06/07 08:00:17;;;;;;;2.15;0.90;;;23.40;87.50;;;;;;4967450;28;20711;-80
2022/06/07 08:02:42;;;;;;;2.80;1.48;;;23.20;82.70;;;;;;4972839;28;20045;-81
2022/06/07 08:05:09;;;;;;;5.75;1.27;;;22.90;81.00;;;;;;4984442;28;20145;-81
2022/06/07 08:07:34;;;;;;;2.67;1.10;;;23.10;82.70;;;;;;4972706;28;20117;-80
2022/06/07 08:10:01;;;;;;;1.77;1.05;;;23.30;81.90;;;;;;4961269;28;20110;-81
2022/06/07 08:12:27;;;;;;;7.47;1.77;;;23.40;80.70;;;;;;4950414;28;20125;-82
2022/06/07 08:14:53;;;;;;;3.72;1.40;;;23.50;82.90;;;;;;4986626;28;20682;-81
2022/06/07 08:17:18;;;;;;;1.88;1.02;;;23.60;79.60;;;;;;4974075;28;20056;-81
2022/06/07 08:19:44;;;;;;;2.38;1.00;;;23.50;79.60;;;;;;4955976;28;20034;-81
2022/06/07 08:22:10;;;;;;;2.22;1.20;;;23.60;78.50;;;;;;4956314;28;20057;-81
2022/06/07 08:24:37;;;;;;;4.22;1.27;;;23.30;77.20;;;;;;4967154;28;20177;-81
2022/06/07 08:27:03;;;;;;;2.95;1.25;;;23.30;77.60;;;;;;4959076;28;20088;-81
2022/06/07 08:29:29;;;;;;;4.60;1.80;;;23.00;77.80;;;;;;4970349;28;20070;-81
2022/06/07 08:31:54;;;;;;;1.67;1.02;;;23.30;78.40;;;;;;4973387;28;20149;-82
2022/06/07 08:39:49;;;;;;;1.98;1.42;;;23.80;79.40;;;;;;4958590;28;20052;-82
2022/06/07 08:42:31;;;;;;;0.57;0.57;;;23.90;75.30;;;;;;4971794;28;20491;-81
2022/06/07 08:45:10;;;;;;;2.22;1.00;;;24.00;77.80;;;;;;4949897;28;20027;-81
2022/06/07 08:47:39;;;;;;;3.00;1.10;;;24.50;74.80;;;;;;4976997;28;20045;-81
2022/06/07 08:50:16;;;;;;;2.33;1.13;;;24.20;75.40;;;;;;4984875;28;20554;-81
2022/06/07 08:52:42;;;;;;;5.40;1.45;;;24.80;79.20;;;;;;4970929;28;20443;-82
2022/06/07 08:55:13;;;;;;;2.15;1.30;;;25.20;72.70;;;;;;4950490;28;20042;-81
2022/06/07 08:57:38;;;;;;;5.53;1.55;;;25.00;71.80;;;;;;4970948;28;20675;-81
2022/06/07 09:00:15;;;;;;;2.55;1.08;;;24.60;72.60;;;;;;4953686;28;20037;-85
2022/06/07 09:03:05;;;;;;;2.15;1.20;;;25.20;70.90;;;;;;4965663;28;20561;-85
2022/06/07 09:05:40;;;;;;;3.15;1.20;;;26.10;72.70;;;;;;4986833;28;20052;-85
2022/06/07 09:08:06;;;;;;;3.15;1.10;;;26.20;73.00;;;;;;4956328;28;20520;-85
2022/06/07 09:13:20;;;;;;;3.10;1.38;;;26.20;69.00;;;;;;4989047;28;20065;-85
2022/06/07 09:15:48;;;;;;;4.85;1.45;;;26.00;69.10;;;;;;4950638;28;20600;-85
2022/06/07 09:18:14;;;;;;;2.47;1.27;;;26.40;67.60;;;;;;4971490;28;20490;-85
2022/06/07 09:20:47;;;;;;;1.48;0.95;;;26.60;68.00;;;;;;4957313;28;20030;-86
2022/06/07 09:23:45;;;;;;;2.83;1.20;;;26.50;71.30;;;;;;4965355;28;20097;-84
2022/06/07 09:26:30;;;;;;;2.70;0.75;;;26.50;67.80;;;;;;4959467;28;20125;-84
2022/06/07 09:29:16;;;;;;;2.25;1.20;;;26.10;66.90;;;;;;4974628;28;20068;-85
2022/06/07 09:31:43;;;;;;;1.13;0.90;;;26.90;72.10;;;;;;4991943;28;20034;-85
2022/06/07 09:34:30;;;;;;;2.70;1.15;;;27.60;68.50;;;;;;4972856;28;20923;-85
2022/06/07 09:37:04;;;;;;;3.67;1.85;;;27.40;65.50;;;;;;4976635;28;20035;-85
2022/06/07 09:39:34;;;;;;;2.28;1.02;;;27.10;66.10;;;;;;4960249;28;20135;-84
2022/06/07 09:42:22;;;;;;;6.20;1.90;;;26.00;66.00;;;;;;4991668;28;20567;-85
2022/06/07 09:45:13;;;;;;;4.45;1.10;;;26.20;68.20;;;;;;4993747;28;20060;-85
2022/06/07 09:47:39;;;;;;;2.25;1.00;;;26.80;65.80;;;;;;4975914;28;20034;-85
2022/06/07 09:50:18;;;;;;;0.90;0.77;;;26.90;67.20;;;;;;4961028;28;20076;-85
2022/06/07 09:52:46;;;;;;;2.00;1.00;;;26.50;67.10;;;;;;4984999;28;20022;-85
2022/06/07 09:55:21;;;;;;;2.33;1.08;;;27.30;66.90;;;;;;4974543;28;20039;-86
2022/06/07 09:58:03;;;;;;;1.90;1.10;;;26.80;67.20;;;;;;4991588;28;20030;-85
2022/06/07 10:00:49;;;;;;;1.92;0.90;;;26.80;66.50;;;;;;4991093;28;20133;-85
2022/06/07 10:03:25;;;;;;;2.70;1.10;;;26.80;64.70;;;;;;4966229;28;20034;-85
2022/06/07 10:06:06;;;;;;;3.42;1.40;;;27.00;65.30;;;;;;4982207;28;20037;-85
2022/06/07 10:08:50;;;;;;;1.92;1.17;;;26.90;65.90;;;;;;4981735;28;20532;-85
2022/06/07 10:11:38;;;;;;;2.47;1.05;;;27.00;65.10;;;;;;4992220;28;20041;-86
2022/06/07 10:14:37;;;;;;;3.47;1.27;;;26.90;65.70;;;;;;4979242;28;20034;-85
2022/06/07 10:17:11;;;;;;;1.58;1.25;;;27.40;65.00;;;;;;4955306;28;20565;-85
2022/06/07 10:19:37;;;;;;;3.40;1.00;;;27.40;64.80;;;;;;4971522;28;20034;-86
2022/06/07 10:22:23;;;;;;;2.10;0.80;;;27.10;65.70;;;;;;4995562;28;20057;-85
2022/06/07 10:25:18;;;;;;;2.83;1.23;;;27.20;65.40;;;;;;4980445;28;20043;-85
2022/06/07 10:27:55;;;;;;;2.90;1.08;;;27.90;64.70;;;;;;4972655;28;20039;-85
2022/06/07 10:30:38;;;;;;;2.47;1.05;;;28.30;64.10;;;;;;4991942;28;20101;-85
2022/06/07 10:33:10;;;;;;;1.48;0.85;;;27.30;64.20;;;;;;4990753;28;20035;-84
2022/06/07 10:35:56;;;;;;;1.38;1.00;;;27.90;63.70;;;;;;4976415;28;20045;-85
2022/06/07 10:38:47;;;;;;;4.60;1.58;;;28.30;64.40;;;;;;4936486;28;20483;-85
2022/06/07 10:41:21;;;;;;;3.15;1.15;;;28.70;63.20;;;;;;4975901;28;20113;-84
2022/06/07 10:44:10;;;;;;;2.20;1.10;;;28.80;63.60;;;;;;4960469;28;20037;-84
2022/06/07 10:46:37;;;;;;;1.52;0.70;;;28.90;62.20;;;;;;4980482;28;20050;-83
2022/06/07 10:49:14;;;;;;;3.03;0.93;;;28.80;61.60;;;;;;4948961;28;20506;-83
2022/06/07 10:54:46;;;;;;;4.05;0.93;;;28.30;60.20;;;;;;4976297;28;20052;-83
2022/06/07 10:57:16;;;;;;;1.23;1.02;;;29.10;63.30;;;;;;4992642;28;20042;-82
2022/06/07 10:59:42;;;;;;;3.05;0.70;;;29.70;60.10;;;;;;4997215;28;20025;-82
2022/06/07 11:02:11;;;;;;;1.23;0.63;;;29.90;59.70;;;;;;4957902;28;20493;-82
2022/06/07 11:10:20;;;;;;;2.92;0.98;;;30.10;59.30;;;;;;4993654;28;20045;-82
2022/06/07 11:13:18;;;;;;;1.02;0.65;;;30.00;59.80;;;;;;4960030;28;20386;-82
2022/06/07 11:15:45;;;;;;;2.80;1.00;;;30.10;59.00;;;;;;4984474;28;20557;-82
2022/06/07 11:18:19;;;;;;;2.83;1.00;;;30.10;58.80;;;;;;4977495;28;20037;-82
2022/06/07 11:20:50;;;;;;;2.20;0.63;;;30.30;59.00;;;;;;4961738;28;20030;-81
2022/06/07 11:23:25;;;;;;;1.77;0.93;;;29.70;57.80;;;;;;4956127;28;20049;-82
2022/06/07 11:26:06;;;;;;;1.70;0.70;;;29.80;57.40;;;;;;4957450;28;20622;-81
2022/06/07 11:28:40;;;;;;;1.30;0.80;;;30.30;59.90;;;;;;4968876;28;20041;-81
2022/06/07 11:31:24;;;;;;;1.40;0.85;;;30.80;58.30;;;;;;4993671;28;20034;-81
2022/06/07 11:33:50;;;;;;;2.03;1.15;;;30.60;58.00;;;;;;4978513;28;20524;-81
2022/06/07 11:36:28;;;;;;;3.10;0.70;;;30.80;57.50;;;;;;4995951;28;20117;-81
2022/06/07 11:38:57;;;;;;;3.53;0.90;;;30.70;57.10;;;;;;4994423;28;20467;-80
2022/06/07 11:41:37;;;;;;;2.80;1.00;;;30.90;56.80;;;;;;4989175;28;20055;-80
2022/06/07 11:44:10;;;;;;;1.70;0.85;;;30.70;56.80;;;;;;4979527;28;20449;-80
2022/06/07 11:46:35;;;;;;;1.40;0.70;;;30.70;57.80;;;;;;4990098;28;20052;-81
2022/06/07 11:51:57;;;;;;;2.95;1.08;;;31.00;58.00;;;;;;4992061;28;20046;-81
2022/06/07 11:54:45;;;;;;;1.58;0.80;;;31.20;55.80;;;;;;4977929;28;20042;-81
2022/06/07 11:57:35;;;;;;;1.63;0.70;;;30.90;54.60;;;;;;4994730;28;20105;-81
2022/06/07 12:00:44;;;;;;;1.20;0.77;;;30.80;56.40;;;;;;4954023;28;20088;-81
2022/06/07 12:03:12;;;;;;;2.80;0.60;;;30.60;56.20;;;;;;4982867;28;20050;-80
2022/06/07 12:05:45;;;;;;;2.17;0.50;;;31.00;56.60;;;;;;4957903;28;20034;-81
2022/06/07 12:08:20;;;;;;;2.30;0.80;;;31.00;55.00;;;;;;4973541;28;20038;-80
2022/06/07 12:11:20;;;;;;;2.13;0.95;;;31.10;55.80;;;;;;4985563;28;20113;-81
2022/06/07 12:13:51;;;;;;;1.10;0.70;;;31.10;55.90;;;;;;4996249;28;20168;-80
2022/06/07 12:16:22;;;;;;;3.63;1.00;;;31.00;55.60;;;;;;4974472;28;20097;-80
2022/06/07 12:18:55;;;;;;;3.58;1.00;;;30.80;55.10;;;;;;4984303;28;20022;-81
2022/06/07 12:21:21;;;;;;;2.88;1.13;;;30.70;55.20;;;;;;4974325;28;20552;-81
2022/06/07 12:23:52;;;;;;;3.38;1.20;;;31.10;54.90;;;;;;4975292;28;20042;-80
2022/06/07 12:26:29;;;;;;;2.47;0.80;;;31.30;54.60;;;;;;4972628;28;20037;-80
2022/06/07 12:28:55;;;;;;;7.20;2.78;;;30.40;55.50;;;;;;4955111;28;20181;-81
2022/06/07 12:31:25;;;;;;;1.88;0.98;;;30.60;55.50;;;;;;4993408;28;20490;-81
2022/06/07 12:33:52;;;;;;;4.82;1.10;;;30.70;55.30;;;;;;4977929;28;20045;-80
2022/06/07 12:36:20;;;;;;;0.70;0.70;;;30.70;54.70;;;;;;4991713;28;20398;-80
2022/06/07 12:38:47;;;;;;;2.97;0.80;;;30.30;55.40;;;;;;4994377;28;20109;-81
2022/06/07 12:41:13;;;;;;;3.00;1.10;;;30.10;55.90;;;;;;4950583;28;20473;-81
2022/06/07 12:43:45;;;;;;;3.40;1.50;;;30.30;55.50;;;;;;4952949;28;20047;-80
2022/06/07 12:46:27;;;;;;;3.00;1.23;;;30.40;55.20;;;;;;4955744;28;20458;-80
2022/06/07 12:48:53;;;;;;;2.30;1.67;;;30.20;55.40;;;;;;4966520;28;20106;-80
2022/06/07 12:51:34;;;;;;;2.17;1.52;;;30.10;55.80;;;;;;4958254;28;20577;-80
2022/06/07 12:54:23;;;;;;;2.13;1.30;;;30.20;56.00;;;;;;4954051;28;20034;-80
2022/06/07 12:56:53;;;;;;;6.80;1.63;;;29.90;55.80;;;;;;4990736;28;20042;-81
2022/06/07 12:59:30;;;;;;;3.63;1.17;;;29.80;55.70;;;;;;4977856;28;20139;-80
2022/06/07 13:01:56;;;;;;;1.60;0.98;;;29.70;56.00;;;;;;4985707;28;20085;-81
2022/06/07 13:04:32;;;;;;;1.70;0.90;;;29.50;56.10;;;;;;4972335;28;20680;-81
2022/06/07 13:07:10;;;;;;;;;;;29.30;56.00;;;;;;4994825;28;20034;-81
2022/06/07 13:09:35;;;;;;;2.75;1.05;;;29.00;56.50;;;;;;4995898;28;20410;-81
2022/06/07 13:12:01;;;;;;;3.60;1.20;;;28.60;57.30;;;;;;4976223;28;20045;-81
2022/06/07 13:14:27;;;;;;;1.73;1.38;;;28.50;57.40;;;;;;4977625;28;20514;-81
2022/06/07 13:16:52;;;;;;;6.25;2.38;;;28.30;57.40;;;;;;4960297;28;20030;-81
2022/06/07 13:19:24;;;;;;;3.88;2.25;;;28.20;58.10;;;;;;4978296;28;20027;-81
2022/06/07 13:22:03;;;;;;;4.38;1.42;;;27.80;59.30;;;;;;4964725;28;20041;-81
2022/06/07 13:24:47;;;;;;;4.53;1.50;;;27.60;58.80;;;;;;4980980;28;20049;-82
2022/06/07 13:27:34;;;;;;;2.90;1.50;;;27.50;59.80;;;;;;4982742;28;20513;-81
2022/06/07 13:30:00;;;;;;;4.35;1.65;;;27.20;60.70;;;;;;4995943;28;20031;-82
2022/06/07 13:32:26;;;;;;;2.30;1.10;;;27.00;63.00;;;;;;4957334;28;20030;-82